createdAt,value
2018-01-15T00:00:00.745Z,66.00
2018-01-15T00:02:28.338Z,64.70
2018-01-15T00:04:55.919Z,64.70
2018-01-15T00:07:23.507Z,64.10
2018-01-15T00:09:51.081Z,65.50
2018-01-15T00:12:18.673Z,64.80
2018-01-15T00:14:47.011Z,64.50
2018-01-15T00:17:14.614Z,64.50
2018-01-15T00:19:42.182Z,64.00
2018-01-15T00:22:17.308Z,63.90
2018-01-15T00:24:45.646Z,63.50
2018-01-15T00:27:13.239Z,63.50
2018-01-15T00:29:40.796Z,64.30
2018-01-15T00:32:08.391Z,64.10
2018-01-15T00:34:35.964Z,64.30
2018-01-15T00:37:03.554Z,64.30
2018-01-15T00:39:31.135Z,64.50
2018-01-15T00:41:58.725Z,64.00
2018-01-15T00:44:26.290Z,64.70
2018-01-15T00:46:53.879Z,65.10
2018-01-15T00:49:21.437Z,64.10
2018-01-15T00:51:49.037Z,64.40
2018-01-15T00:54:16.612Z,64.30
2018-01-15T00:56:44.206Z,63.90
2018-01-15T00:59:11.775Z,65.20
2018-01-15T01:01:39.374Z,65.20
2018-01-15T01:04:07.696Z,66.00
2018-01-15T01:06:35.291Z,65.90
2018-01-15T01:09:02.887Z,64.90
2018-01-15T01:11:30.467Z,63.90
2018-01-15T01:13:58.061Z,63.40
2018-01-15T01:16:25.640Z,63.70
2018-01-15T01:18:53.266Z,64.90
2018-01-15T01:21:20.840Z,64.60
2018-01-15T01:23:48.457Z,64.50
2018-01-15T01:26:16.026Z,64.80
2018-01-15T01:28:43.617Z,65.20
2018-01-15T01:31:11.188Z,64.50
2018-01-15T01:33:38.803Z,65.10
2018-01-15T01:36:06.421Z,65.30
2018-01-15T01:38:34.026Z,65.20
2018-01-15T01:41:01.593Z,64.40
2018-01-15T01:43:29.190Z,64.80
2018-01-15T01:45:56.773Z,64.30
2018-01-15T01:48:25.143Z,63.80
2018-01-15T01:50:52.719Z,63.80
2018-01-15T01:53:20.308Z,64.00
2018-01-15T01:55:47.886Z,65.30
2018-01-15T01:58:15.477Z,64.40
2018-01-15T02:00:43.818Z,64.70
2018-01-15T02:03:11.417Z,64.60
2018-01-15T02:05:38.998Z,65.10
2018-01-15T02:08:06.735Z,65.20
2018-01-15T02:10:34.313Z,64.80
2018-01-15T02:13:01.916Z,64.80
2018-01-15T02:15:29.486Z,64.20
2018-01-15T02:17:58.548Z,64.20
2018-01-15T02:20:26.122Z,64.60
2018-01-15T02:22:54.469Z,67.30
2018-01-15T02:25:22.061Z,67.30
2018-01-15T02:27:49.637Z,66.00
2018-01-15T02:30:17.234Z,65.30
2018-01-15T02:32:44.807Z,64.80
2018-01-15T02:35:12.405Z,64.90
2018-01-15T02:37:39.985Z,64.90
2018-01-15T02:40:08.357Z,65.60
2018-01-15T02:42:35.929Z,65.60
2018-01-15T02:45:04.287Z,65.30
2018-01-15T02:47:31.861Z,65.20
2018-01-15T02:50:00.231Z,64.60
2018-01-15T02:52:28.577Z,64.50
2018-01-15T02:54:56.184Z,64.40
2018-01-15T02:57:24.521Z,66.10
2018-01-15T02:59:52.126Z,66.10
2018-01-15T03:02:20.470Z,65.00
2018-01-15T03:04:48.072Z,65.00
2018-01-15T03:07:15.641Z,65.10
2018-01-15T03:09:43.238Z,66.40
2018-01-15T03:12:10.815Z,67.10
2018-01-15T03:14:38.405Z,65.90
2018-01-15T03:17:05.976Z,65.30
2018-01-15T03:19:33.569Z,66.30
2018-01-15T03:22:04.028Z,67.00
2018-01-15T03:24:31.619Z,66.10
2018-01-15T03:26:59.201Z,66.60
2018-01-15T03:29:26.789Z,67.60
2018-01-15T03:31:54.355Z,67.50
2018-01-15T03:34:21.952Z,66.10
2018-01-15T03:36:49.534Z,66.00
2018-01-15T03:39:17.121Z,66.80
2018-01-15T03:41:44.717Z,67.60
2018-01-15T03:44:12.285Z,68.00
2018-01-15T03:46:39.873Z,67.20
2018-01-15T03:49:07.449Z,68.20
2018-01-15T03:51:35.042Z,68.70
2018-01-15T03:54:03.371Z,67.10
2018-01-15T03:56:30.974Z,67.10
2018-01-15T03:58:58.540Z,67.10
2018-01-15T04:01:26.137Z,67.60
2018-01-15T04:03:53.706Z,67.70
2018-01-15T04:06:21.296Z,67.10
2018-01-15T04:08:48.870Z,66.40
2018-01-15T04:11:16.815Z,66.90
2018-01-15T04:13:46.657Z,67.30
2018-01-15T04:16:15.435Z,67.30
2018-01-15T04:18:43.034Z,67.00
2018-01-15T04:21:10.625Z,67.40
2018-01-15T04:23:38.205Z,68.10
2018-01-15T04:26:05.808Z,68.50
2018-01-15T04:28:33.379Z,67.70
2018-01-15T04:31:00.974Z,67.30
2018-01-15T04:33:28.548Z,66.80
2018-01-15T04:35:56.156Z,66.80
2018-01-15T04:38:23.721Z,66.40
2018-01-15T04:40:51.317Z,66.90
2018-01-15T04:43:18.883Z,66.90
2018-01-15T04:45:46.472Z,67.80
2018-01-15T04:48:14.033Z,67.40
2018-01-15T04:50:41.625Z,66.60
2018-01-15T04:53:09.208Z,66.60
2018-01-15T04:55:36.778Z,67.00
2018-01-15T04:58:04.374Z,66.80
2018-01-15T05:00:31.943Z,67.00
2018-01-15T05:02:59.534Z,66.20
2018-01-15T05:05:27.545Z,66.50
2018-01-15T05:07:55.134Z,67.30
2018-01-15T05:10:22.706Z,66.10
2018-01-15T05:12:50.291Z,66.00
2018-01-15T05:15:17.861Z,65.60
2018-01-15T05:17:45.450Z,65.90
2018-01-15T05:20:13.581Z,66.20
2018-01-15T05:22:41.174Z,66.00
2018-01-15T05:25:09.534Z,66.10
2018-01-15T05:27:37.150Z,66.10
2018-01-15T05:30:04.713Z,66.70
2018-01-15T05:32:32.300Z,66.80
2018-01-15T05:35:00.878Z,65.90
2018-01-15T05:37:28.461Z,66.90
2018-01-15T05:39:56.025Z,66.00
2018-01-15T05:42:24.381Z,66.80
2018-01-15T05:44:51.944Z,66.70
2018-01-15T05:47:19.533Z,66.10
2018-01-15T05:49:47.105Z,65.30
2018-01-15T05:52:14.709Z,66.20
2018-01-15T05:54:42.276Z,65.80
2018-01-15T05:57:09.873Z,65.90
2018-01-15T05:59:37.444Z,66.50
2018-01-15T06:02:05.035Z,67.10
2018-01-15T06:04:32.596Z,66.50
2018-01-15T06:07:00.189Z,66.60
2018-01-15T06:09:28.520Z,65.90
2018-01-15T06:11:56.094Z,66.60
2018-01-15T06:14:23.732Z,66.00
2018-01-15T06:16:51.434Z,66.10
2018-01-15T06:19:19.018Z,66.70
2018-01-15T06:21:47.349Z,66.70
2018-01-15T06:24:14.941Z,66.70
2018-01-15T06:26:43.276Z,66.60
2018-01-15T06:29:10.866Z,66.60
2018-01-15T06:31:38.433Z,66.50
2018-01-15T06:34:06.790Z,68.00
2018-01-15T06:36:34.357Z,67.90
2018-01-15T06:39:01.952Z,68.60
2018-01-15T06:41:29.520Z,67.50
2018-01-15T06:43:57.105Z,67.00
2018-01-15T06:46:24.681Z,67.30
2018-01-15T06:48:52.273Z,67.40
2018-01-15T06:51:19.839Z,68.00
2018-01-15T06:53:47.438Z,68.60
2018-01-15T06:56:15.005Z,68.90
2018-01-15T06:58:43.168Z,69.10
2018-01-15T07:01:11.549Z,67.80
2018-01-15T07:03:39.137Z,67.80
2018-01-15T07:06:06.701Z,67.10
2018-01-15T07:08:34.296Z,67.00
2018-01-15T07:11:01.870Z,66.90
2018-01-15T07:13:29.459Z,67.60
2018-01-15T07:15:57.028Z,68.50
2018-01-15T07:18:24.618Z,67.80
2018-01-15T07:20:52.179Z,68.10
2018-01-15T07:23:20.562Z,67.20
2018-01-15T07:25:48.139Z,67.10
2018-01-15T07:28:15.704Z,67.30
2018-01-15T07:30:43.294Z,67.20
2018-01-15T07:33:10.859Z,67.60
2018-01-15T07:35:38.449Z,67.70
2018-01-15T07:38:06.787Z,67.90
2018-01-15T07:40:34.377Z,67.90
2018-01-15T07:43:02.718Z,68.00
2018-01-15T07:45:30.317Z,67.90
2018-01-15T07:47:57.881Z,68.00
2018-01-15T07:50:26.240Z,68.30
2018-01-15T07:52:53.810Z,68.40
2018-01-15T07:55:22.163Z,69.60
2018-01-15T07:57:49.733Z,69.50
2018-01-15T08:00:17.334Z,69.10
2018-01-15T08:02:44.901Z,69.20
2018-01-15T08:05:12.494Z,68.60
2018-01-15T08:07:40.065Z,68.80
2018-01-15T08:10:07.650Z,68.20
2018-01-15T08:12:35.216Z,68.80
2018-01-15T08:15:02.947Z,68.90
2018-01-15T08:17:30.517Z,69.40
2018-01-15T08:19:58.110Z,70.30
2018-01-15T08:22:25.689Z,70.30
2018-01-15T08:24:53.276Z,70.50
2018-01-15T08:27:20.849Z,70.70
2018-01-15T08:29:48.440Z,71.30
2018-01-15T08:32:16.041Z,71.20
2018-01-15T08:34:43.651Z,70.70
2018-01-15T08:37:11.217Z,71.00
2018-01-15T08:39:38.782Z,71.10
2018-01-15T08:42:06.388Z,70.40
2018-01-15T08:44:33.960Z,70.60
2018-01-15T08:47:01.553Z,71.10
2018-01-15T08:49:29.124Z,70.50
2018-01-15T08:51:56.715Z,70.00
2018-01-15T08:54:24.285Z,69.90
2018-01-15T08:56:51.881Z,70.00
2018-01-15T08:59:19.483Z,70.20
2018-01-15T09:01:47.060Z,70.40
2018-01-15T09:04:14.634Z,70.90
2018-01-15T09:06:42.229Z,70.10
2018-01-15T09:09:09.798Z,69.70
2018-01-15T09:11:37.388Z,69.70
2018-01-15T09:14:04.962Z,70.50
2018-01-15T09:16:32.555Z,70.20
2018-01-15T09:19:00.593Z,70.50
2018-01-15T09:21:28.189Z,70.20
2018-01-15T09:23:55.753Z,69.60
2018-01-15T09:26:23.345Z,69.70
2018-01-15T09:28:50.915Z,69.70
2018-01-15T09:31:18.502Z,69.50
2018-01-15T09:33:46.073Z,70.30
2018-01-15T09:36:13.659Z,69.80
2018-01-15T09:38:41.222Z,70.70
2018-01-15T09:41:08.810Z,70.10
2018-01-15T09:43:36.369Z,69.70
2018-01-15T09:46:03.958Z,70.00
2018-01-15T09:48:31.865Z,71.00
2018-01-15T09:50:59.430Z,71.40
2018-01-15T09:53:27.017Z,71.60
2018-01-15T09:55:54.610Z,71.60
2018-01-15T09:58:22.942Z,70.90
2018-01-15T10:00:50.538Z,70.80
2018-01-15T10:03:18.098Z,70.40
2018-01-15T10:05:46.449Z,69.70
2018-01-15T10:08:14.022Z,69.70
2018-01-15T10:10:41.613Z,69.30
2018-01-15T10:13:09.373Z,69.80
2018-01-15T10:15:36.961Z,69.50
2018-01-15T10:18:04.525Z,69.60
2018-01-15T10:20:32.118Z,69.00
2018-01-15T10:23:00.583Z,69.40
2018-01-15T10:25:28.214Z,69.50
2018-01-15T10:27:55.799Z,69.50
2018-01-15T10:30:23.418Z,69.40
2018-01-15T10:32:51.012Z,69.20
2018-01-15T10:35:18.581Z,69.00
2018-01-15T10:37:46.177Z,68.70
2018-01-15T10:40:14.518Z,69.00
2018-01-15T10:42:42.113Z,69.00
2018-01-15T10:45:09.687Z,68.90
2018-01-15T10:47:37.277Z,68.50
2018-01-15T10:50:04.848Z,68.70
2018-01-15T10:52:32.442Z,68.90
2018-01-15T10:55:00.772Z,69.10
2018-01-15T10:57:28.365Z,68.90
2018-01-15T10:59:55.950Z,68.90
2018-01-15T11:02:23.540Z,69.10
2018-01-15T11:04:51.104Z,69.10
2018-01-15T11:07:18.697Z,69.10
2018-01-15T11:09:46.285Z,69.10
2018-01-15T11:12:13.883Z,69.20
2018-01-15T11:14:41.452Z,69.10
2018-01-15T11:17:09.089Z,69.30
2018-01-15T11:22:05.420Z,69.20
2018-01-15T11:24:33.310Z,69.70
2018-01-15T11:27:00.886Z,69.50
2018-01-15T11:29:28.482Z,69.50
2018-01-15T11:31:56.268Z,69.80
2018-01-15T11:34:24.116Z,69.90
2018-01-15T11:36:53.096Z,69.70
2018-01-15T11:39:21.649Z,69.90
2018-01-15T11:41:50.218Z,69.50
2018-01-15T11:44:17.948Z,68.70
2018-01-15T11:46:46.196Z,69.10
2018-01-15T11:49:14.199Z,69.10
2018-01-15T11:51:42.517Z,69.40
2018-01-15T11:54:11.949Z,69.60
2018-01-15T11:56:40.772Z,69.60
2018-01-15T11:59:09.008Z,69.70
2018-01-15T12:01:36.646Z,69.50
2018-01-15T12:04:04.242Z,69.60
2018-01-15T12:06:31.822Z,69.80
2018-01-15T12:08:59.576Z,69.70
2018-01-15T12:11:27.141Z,69.70
2018-01-15T12:13:54.734Z,69.60
2018-01-15T12:16:22.297Z,69.50
2018-01-15T12:18:49.915Z,67.50
2018-01-15T12:21:18.725Z,68.20
2018-01-15T12:23:46.455Z,67.90
2018-01-15T12:26:14.806Z,69.00
2018-01-15T12:28:42.398Z,69.00
2018-01-15T12:31:09.969Z,69.20
2018-01-15T12:33:37.545Z,69.10
2018-01-15T12:36:05.128Z,69.20
2018-01-15T12:38:34.321Z,69.70
2018-01-15T12:41:01.976Z,69.70
2018-01-15T12:43:29.536Z,69.80
2018-01-15T12:45:57.126Z,69.80
2018-01-15T12:48:25.466Z,69.80
2018-01-15T12:50:53.064Z,69.80
2018-01-15T12:53:21.403Z,70.00
2018-01-15T12:55:49.002Z,70.00
2018-01-15T12:58:17.337Z,69.60
2018-01-15T13:00:44.929Z,69.50
2018-01-15T13:03:12.493Z,69.60
2018-01-15T13:05:50.772Z,69.50
2018-01-15T13:08:28.162Z,69.40
2018-01-15T13:10:55.758Z,69.30
2018-01-15T13:13:24.096Z,69.40
2018-01-15T13:15:51.689Z,69.30
2018-01-15T13:18:20.029Z,68.90
2018-01-15T13:20:47.612Z,68.90
2018-01-15T13:23:15.181Z,69.40
2018-01-15T13:25:42.779Z,69.80
2018-01-15T13:28:10.348Z,70.60
2018-01-15T13:30:37.938Z,69.70
2018-01-15T13:33:05.514Z,69.30
2018-01-15T13:35:33.108Z,69.80
2018-01-15T13:38:00.682Z,69.60
2018-01-15T13:40:28.272Z,69.90
2018-01-15T13:42:55.849Z,70.00
2018-01-15T13:45:23.437Z,70.10
2018-01-15T13:47:51.771Z,68.60
2018-01-15T13:50:19.361Z,68.60
2018-01-15T13:52:47.699Z,69.20
2018-01-15T13:55:15.268Z,69.10
2018-01-15T13:57:42.848Z,69.40
2018-01-15T14:00:10.418Z,68.90
2018-01-15T14:02:38.779Z,67.90
2018-01-15T14:05:06.345Z,67.90
2018-01-15T14:07:34.701Z,68.00
2018-01-15T14:10:02.310Z,68.00
2018-01-15T14:12:29.897Z,68.20
2018-01-15T14:14:57.465Z,66.90
2018-01-15T14:17:25.049Z,65.70
2018-01-15T14:19:52.608Z,65.30
2018-01-15T14:22:20.196Z,65.70
2018-01-15T14:24:48.526Z,63.20
2018-01-15T14:27:16.115Z,63.20
2018-01-15T14:29:44.438Z,63.20
2018-01-15T14:32:12.594Z,63.10
2018-01-15T14:34:40.211Z,64.60
2018-01-15T14:37:07.797Z,63.90
2018-01-15T14:39:35.387Z,63.40
2018-01-15T14:42:02.964Z,64.20
2018-01-15T14:44:30.528Z,64.00
2018-01-15T14:46:58.113Z,64.00
2018-01-15T14:49:25.677Z,64.00
2018-01-15T14:51:54.030Z,64.20
2018-01-15T14:54:21.593Z,64.10
2018-01-15T14:56:49.184Z,63.70
2018-01-15T14:59:17.518Z,63.90
2018-01-15T15:01:45.106Z,63.80
2018-01-15T15:04:13.429Z,62.40
2018-01-15T15:06:41.013Z,62.20
2018-01-15T15:09:08.577Z,62.30
2018-01-15T15:11:36.171Z,62.00
2018-01-15T15:14:04.501Z,63.00
2018-01-15T15:16:32.265Z,62.80
2018-01-15T15:18:59.830Z,64.00
2018-01-15T15:21:27.392Z,62.70
2018-01-15T15:23:54.997Z,60.40
2018-01-15T15:26:22.569Z,60.60
2018-01-15T15:28:50.157Z,60.70
2018-01-15T15:31:17.725Z,61.40
2018-01-15T15:33:45.321Z,61.40
2018-01-15T15:36:13.653Z,61.50
2018-01-15T15:38:41.237Z,61.50
2018-01-15T15:41:08.796Z,61.30
2018-01-15T15:43:36.372Z,61.20
2018-01-15T15:46:04.696Z,60.70
2018-01-15T15:48:32.285Z,60.70
2018-01-15T15:50:59.846Z,60.90
2018-01-15T15:53:27.434Z,60.40
2018-01-15T15:55:55.766Z,60.20
2018-01-15T15:58:23.353Z,60.00
2018-01-15T16:00:50.919Z,60.60
2018-01-15T16:03:19.329Z,60.50
2018-01-15T16:05:46.867Z,60.50
2018-01-15T16:08:15.218Z,60.60
2018-01-15T16:10:42.776Z,60.60
2018-01-15T16:13:10.361Z,62.40
2018-01-15T16:15:37.920Z,60.20
2018-01-15T16:18:06.279Z,60.20
2018-01-15T16:20:33.842Z,60.20
2018-01-15T16:23:02.196Z,61.40
2018-01-15T16:25:29.757Z,61.40
2018-01-15T16:27:57.349Z,59.80
2018-01-15T16:30:25.672Z,60.50
2018-01-15T16:32:53.237Z,60.30
2018-01-15T16:35:20.837Z,60.90
2018-01-15T16:37:49.174Z,61.50
2018-01-15T16:40:16.770Z,61.50
2018-01-15T16:42:44.339Z,60.90
2018-01-15T16:45:12.685Z,61.50
2018-01-15T16:47:40.255Z,61.50
2018-01-15T16:50:25.630Z,61.60
2018-01-15T16:52:53.192Z,61.20
2018-01-15T16:55:20.773Z,60.30
2018-01-15T16:57:48.335Z,59.60
2018-01-15T17:00:16.693Z,61.10
2018-01-15T17:02:44.254Z,61.20
2018-01-15T17:05:12.601Z,60.80
2018-01-15T17:07:40.174Z,60.00
2018-01-15T17:10:07.760Z,60.90
2018-01-15T17:12:36.092Z,61.10
2018-01-15T17:15:03.677Z,61.10
2018-01-15T17:17:31.246Z,61.80
2018-01-15T17:19:58.833Z,60.70
2018-01-15T17:22:26.392Z,60.20
2018-01-15T17:24:53.975Z,61.30
2018-01-15T17:27:21.541Z,61.70
2018-01-15T17:29:49.247Z,62.10
2018-01-15T17:32:16.813Z,62.50
2018-01-15T17:34:45.161Z,63.10
2018-01-15T17:37:12.725Z,63.00
2018-01-15T17:39:40.304Z,62.00
2018-01-15T17:42:08.630Z,63.40
2018-01-15T17:44:36.212Z,63.30
2018-01-15T17:47:03.781Z,63.60
2018-01-15T17:49:31.377Z,63.60
2018-01-15T17:51:58.937Z,63.80
2018-01-15T17:54:26.501Z,63.70
2018-01-15T17:56:54.093Z,64.00
2018-01-15T17:59:21.657Z,64.20
2018-01-15T18:01:49.249Z,63.30
2018-01-15T18:04:16.813Z,64.70
2018-01-15T18:06:45.166Z,65.30
2018-01-15T18:09:12.732Z,65.20
2018-01-15T18:11:41.092Z,65.30
2018-01-15T18:14:08.660Z,65.30
2018-01-15T18:16:36.246Z,66.00
2018-01-15T18:19:04.572Z,66.30
2018-01-15T18:21:32.161Z,66.30
2018-01-15T18:23:59.834Z,66.60
2018-01-15T18:26:28.190Z,67.00
2018-01-15T18:28:55.753Z,66.90
2018-01-15T18:31:23.354Z,67.40
2018-01-15T18:33:50.910Z,67.20
2018-01-15T18:36:18.499Z,67.10
2018-01-15T18:38:46.061Z,67.90
2018-01-15T18:41:13.650Z,68.50
2018-01-15T18:43:41.212Z,68.70
2018-01-15T18:46:08.792Z,69.50
2018-01-15T18:48:37.117Z,68.60
2018-01-15T18:51:04.706Z,68.60
2018-01-15T18:53:32.264Z,68.70
2018-01-15T18:55:59.853Z,69.10
2018-01-15T18:58:27.421Z,69.00
2018-01-15T19:00:55.002Z,69.10
2018-01-15T19:03:22.593Z,69.10
2018-01-15T19:05:50.173Z,70.10
2018-01-15T19:08:18.525Z,69.00
2018-01-15T19:10:46.084Z,69.00
2018-01-15T19:13:13.669Z,69.60
2018-01-15T19:15:41.996Z,69.10
2018-01-15T19:18:09.576Z,69.10
2018-01-15T19:20:37.136Z,69.30
2018-01-15T19:23:04.720Z,69.40
2018-01-15T19:25:33.045Z,69.80
2018-01-15T19:28:00.631Z,69.70
2018-01-15T19:30:28.236Z,69.80
2018-01-15T19:32:55.835Z,70.40
2018-01-15T19:35:33.056Z,70.70
2018-01-15T19:38:00.641Z,70.70
2018-01-15T19:40:28.208Z,70.70
2018-01-15T19:42:56.273Z,70.30
2018-01-15T19:45:41.634Z,70.60
2018-01-15T19:48:15.616Z,70.50
2018-01-15T19:50:48.767Z,70.40
2018-01-15T19:53:35.144Z,70.70
2018-01-15T19:56:08.284Z,69.70
2018-01-15T19:58:41.508Z,70.60
2018-01-15T20:01:15.434Z,70.60
2018-01-15T20:03:48.585Z,70.60
2018-01-15T20:06:21.759Z,70.00
2018-01-15T20:08:54.902Z,70.50
2018-01-15T20:11:23.261Z,69.90
2018-01-15T20:13:51.618Z,70.80
2018-01-15T20:16:19.181Z,70.80
2018-01-15T20:18:46.824Z,69.80
2018-01-15T20:21:14.388Z,70.20
2018-01-15T20:23:41.982Z,70.70
2018-01-15T20:26:10.314Z,71.00
2018-01-15T20:28:37.900Z,71.00
2018-01-15T20:31:05.504Z,71.30
2018-01-15T20:33:33.086Z,72.60
2018-01-15T20:36:00.651Z,71.00
2018-01-15T20:38:28.308Z,71.20
2018-01-15T20:40:55.926Z,71.40
2018-01-15T20:43:23.560Z,71.70
2018-01-15T20:45:51.164Z,71.70
2018-01-15T20:48:18.801Z,71.80
2018-01-15T20:50:47.836Z,72.00
2018-01-15T20:53:16.147Z,72.00
2018-01-15T20:55:43.816Z,71.30
2018-01-15T20:58:12.221Z,71.80
2018-01-15T21:00:40.354Z,71.70
2018-01-15T21:03:08.788Z,71.50
2018-01-15T21:05:36.746Z,71.50
2018-01-15T21:08:04.417Z,71.70
2018-01-15T21:10:31.986Z,71.40
2018-01-15T21:12:59.549Z,71.90
2018-01-15T21:15:27.188Z,72.30
2018-01-15T21:17:54.755Z,72.30
2018-01-15T21:20:22.379Z,72.10
2018-01-15T21:22:50.706Z,72.40
2018-01-15T21:25:18.331Z,72.40
2018-01-15T21:27:45.906Z,71.60
2018-01-15T21:30:13.544Z,71.70
2018-01-15T21:32:41.916Z,71.50
2018-01-15T21:35:10.265Z,71.30
2018-01-15T21:37:38.664Z,71.50
2018-01-15T21:40:07.064Z,71.30
2018-01-15T21:42:34.701Z,71.10
2018-01-15T21:45:02.327Z,70.70
2018-01-15T21:47:29.931Z,71.60
2018-01-15T21:49:57.559Z,72.00
2018-01-15T21:52:25.176Z,71.40
2018-01-15T21:54:52.761Z,70.80
2018-01-15T21:57:20.325Z,70.60
2018-01-15T21:59:47.954Z,70.90
2018-01-15T22:02:15.509Z,71.00
2018-01-15T22:04:43.097Z,72.30
2018-01-15T22:07:10.715Z,71.80
2018-01-15T22:09:39.097Z,71.40
2018-01-15T22:12:06.660Z,71.20
2018-01-15T22:14:34.245Z,71.40
2018-01-15T22:17:01.851Z,71.70
2018-01-15T22:19:29.439Z,72.10
2018-01-15T22:21:56.997Z,71.70
2018-01-15T22:24:24.752Z,72.10
2018-01-15T22:26:52.355Z,71.70
2018-01-15T22:29:20.689Z,71.80
2018-01-15T22:31:48.272Z,71.80
2018-01-15T22:34:15.837Z,72.20
2018-01-15T22:36:43.422Z,72.40
2018-01-15T22:39:10.988Z,72.20
2018-01-15T22:41:38.573Z,72.50
2018-01-15T22:44:06.137Z,72.20
2018-01-15T22:46:34.495Z,71.80
2018-01-15T22:49:02.050Z,71.80
2018-01-15T22:51:29.628Z,72.40
2018-01-15T22:53:57.188Z,72.20
2018-01-15T22:56:25.535Z,72.40
2018-01-15T22:58:53.098Z,72.40
2018-01-15T23:01:20.693Z,72.40
2018-01-15T23:03:48.257Z,72.80
2018-01-15T23:06:15.853Z,72.80
2018-01-15T23:08:43.417Z,72.20
2018-01-15T23:11:11.049Z,72.80
2018-01-15T23:13:39.355Z,71.10
2018-01-15T23:16:06.945Z,71.10
2018-01-15T23:18:34.504Z,72.20
2018-01-15T23:21:02.089Z,71.80
2018-01-15T23:23:29.652Z,71.20
2018-01-15T23:25:57.234Z,71.60
2018-01-15T23:28:24.797Z,71.30
2018-01-15T23:30:52.387Z,70.70
2018-01-15T23:33:19.948Z,70.50
2018-01-15T23:35:48.105Z,70.00
2018-01-15T23:38:15.660Z,69.60
2018-01-15T23:40:43.248Z,70.30
2018-01-15T23:43:11.625Z,69.90
2018-01-15T23:45:39.953Z,69.60
2018-01-15T23:48:07.533Z,69.60
2018-01-15T23:50:35.097Z,70.00
2018-01-15T23:53:02.781Z,71.40
2018-01-15T23:55:30.345Z,70.90
2018-01-15T23:57:58.695Z,71.00
